• Join FlightAware (Why Join?)
  • Login
  • US Flag 
06:31AM EDT


 

Airport Tracker/Info


-or-


 

Live Flight TrackerFlight Track Log ✈ N368BE ✈ 16-May-2013 ✈ KOMA - KBIS

Flight Track Log - Related Links

Times and Time Zones

All times are in EDT time to prevent confusion due to time zone crossing. See the N368BE flight status page for this flight to view local times or setup timezone preferences in your user account.

Time Position Orientation Groundspeed Altitude Reporting Facility
EDT Latitude Longitude Course Direction KTS MPH feet Rate Location/Type
04:54PM 41.2386 -95.8292 139° Southeast 235 270 5,000  Level Minneapolis Center
04:54PM 41.2192 -95.7592 110° East 260 299 7,200 2,520 Climbing Minneapolis Center
04:55PM 41.2308 -95.7425 47° Northeast 250 288 8,200 3,480 Climbing Minneapolis Center
04:56PM 41.3064 -95.7372 North 269 310 12,100 3,240 Climbing Minneapolis Center
04:57PM 41.3925 -95.7906 335° Northwest 284 327 15,000 1,380 Climbing Minneapolis Center
04:58PM 41.4753 -95.8589 328° Northwest 349 402 15,000 60 Level Minneapolis Center
04:59PM 41.5575 -95.9261 329° Northwest 352 405 15,200 1,920 Climbing Minneapolis Center
05:00PM 41.6350 -96.0033 323° Northwest 325 374 19,000 3,540 Climbing Minneapolis Center
05:01PM 41.6800 -96.1061 300° West 304 350 22,600 2,220 Climbing Minneapolis Center
05:02PM 41.7142 -96.2114 294° West 313 360 23,600 1,800 Climbing Minneapolis Center
05:03PM 41.7467 -96.3300 290° West 339 390 26,400 2,640 Climbing Minneapolis Center
05:04PM 41.7686 -96.4456 284° West 324 373 29,200 2,640 Climbing Minneapolis Center
05:05PM 41.7933 -96.5583 286° West 319 367 31,900 2,220 Climbing Minneapolis Center
05:06PM 41.8175 -96.6689 286° West 313 360 33,900 1,980 Climbing Minneapolis Center
05:07PM 41.8447 -96.8050 285° West 315 362 36,100 1,740 Climbing Minneapolis Center
05:08PM 41.8642 -96.9225 283° West 320 368 37,600 1,440 Climbing Minneapolis Center
05:09PM 41.8858 -97.0431 284° West 331 381 39,100 1,140 Climbing Minneapolis Center
05:10PM 41.9150 -97.1633 288° West 335 386 40,000 420 Climbing Minneapolis Center
05:11PM 41.9986 -97.2475 323° Northwest 372 428 40,000  Level Minneapolis Center
05:12PM 42.0992 -97.3100 335° Northwest 391 450 40,000  Level Minneapolis Center
05:13PM 42.2242 -97.3933 334° Northwest 410 472 40,000 120 Level Minneapolis Center
05:14PM 42.3300 -97.4664 333° Northwest 421 484 40,300 1,020 Climbing Minneapolis Center
05:15PM 42.4306 -97.5328 334° Northwest 411 473 42,200 1,260 Climbing Minneapolis Center
05:16PM 42.5233 -97.5981 333° Northwest 382 440 43,000 360 Climbing Minneapolis Center
05:18PM 42.6208 -97.6639 334° Northwest 385 443 43,000  Level Minneapolis Center
05:19PM 42.7183 -97.7308 333° Northwest 390 449 43,000  Level Minneapolis Center
05:20PM 42.8367 -97.8114 333° Northwest 393 452 43,000  Level Minneapolis Center
05:21PM 42.9372 -97.8803 333° Northwest 397 457 43,000  Level Minneapolis Center
05:22PM 43.0358 -97.9506 332° Northwest 399 459 43,000  Level Minneapolis Center
05:23PM 43.1358 -98.0194 333° Northwest 401 461 43,000  Level Minneapolis Center
05:24PM 43.2347 -98.0886 333° Northwest 400 460 43,000  Level Minneapolis Center
05:25PM 43.3353 -98.1594 333° Northwest 405 466 43,000  Level Minneapolis Center
05:26PM 43.4544 -98.2428 333° Northwest 402 463 43,000  Level Minneapolis Center
05:27PM 43.5558 -98.3144 333° Northwest 406 467 43,000  Level Minneapolis Center
05:28PM 43.6561 -98.3858 333° Northwest 406 467 43,000  Level Minneapolis Center
05:29PM 43.7567 -98.4567 333° Northwest 406 467 43,000  Level Minneapolis Center
05:30PM 43.8553 -98.5286 332° Northwest 402 463 43,000  Level Minneapolis Center
05:31PM 43.9553 -98.5994 333° Northwest 404 465 43,000  Level Minneapolis Center
05:32PM 44.0758 -98.6861 333° Northwest 405 466 43,000  Level Minneapolis Center
05:33PM 44.1636 -98.7500 332° Northwest 405 466 43,000  Level Minneapolis Center
05:34PM 44.2853 -98.8364 333° Northwest 409 471 43,000  Level Minneapolis Center
05:35PM 44.3853 -98.9097 332° Northwest 406 467 43,000  Level Minneapolis Center
05:36PM 44.4856 -98.9833 332° Northwest 406 467 43,000  Level Minneapolis Center
05:37PM 44.5831 -99.0556 332° Northwest 399 459 43,000  Level Minneapolis Center
05:38PM 44.6822 -99.1292 332° Northwest 402 463 43,000  Level Minneapolis Center
05:40PM 44.7937 -99.1814 342° North  Level FlightAware Approximate
05:40PM 44.8992 -99.2900 342° North 402 463 43,000  Level Minneapolis Center
05:41PM 44.9978 -99.3631 332° Northwest 402 463 43,000  Level Minneapolis Center
05:42PM 45.0953 -99.4378 332° Northwest 402 463 43,000  Level Minneapolis Center
05:43PM 45.1933 -99.5106 332° Northwest 401 461 43,000  Level Minneapolis Center
05:44PM 45.2911 -99.5853 332° Northwest 403 464 43,000 -420 Level Minneapolis Center
05:45PM 45.4072 -99.6736 332° Northwest 399 459 42,200 -2,040 Descending Minneapolis Center
05:47PM 45.5008 -99.7464 331° Northwest 392 451 38,900 -3,120 Descending Minneapolis Center
05:48PM 45.5994 -99.8206 332° Northwest 397 457 35,800 -3,060 Descending Minneapolis Center
05:49PM 45.7031 -99.9006 332° Northwest 415 478 32,600 -3,000 Descending Minneapolis Center
05:50PM 45.8042 -99.9806 331° Northwest 418 481 29,600 -3,180 Descending Minneapolis Center
05:51PM 45.9203 -100.0694 332° Northwest 400 460 26,100 -3,120 Descending Minneapolis Center
05:52PM 46.0142 -100.1444 331° Northwest 386 444 23,200 -2,760 Descending Minneapolis Center
05:53PM 46.1067 -100.2144 332° Northwest 379 436 20,500 -2,520 Descending Minneapolis Center
05:54PM 46.1939 -100.2836 331° Northwest 367 422 18,000 -2,460 Descending Minneapolis Center
05:55PM 46.2764 -100.3497 331° Northwest 349 402 15,400 -2,400 Descending Minneapolis Center
05:56PM 46.3717 -100.3347 North 357 411 13,100 -2,160 Descending Minneapolis Center
05:57PM 46.4814 -100.3339 360° North 332 382 11,000 -2,040 Descending Minneapolis Center
05:58PM 46.5753 -100.3631 348° North 341 392 9,000 -1,500 Descending Minneapolis Center
05:59PM 46.6525 -100.3972 343° North 289 333 8,000 -1,380 Descending Minneapolis Center
06:00PM 46.7158 -100.4706 322° Northwest 286 329 6,200 -1,500 Descending Minneapolis Center
06:01PM 46.7778 -100.5542 317° Northwest 277 319 5,000 -600 Descending Minneapolis Center
06:02PM 46.8306 -100.6297 316° Northwest 263 303 5,000 -480 Level Minneapolis Center
06:03PM 46.8806 -100.7053 314° West 258 297 4,100 -480 Descending Minneapolis Center
06:04PM 46.9217 -100.7678 314° West 212 244 4,100  Level Minneapolis Center
06:05PM 46.9325 -100.8339 284° West 191 220 4,100 -300 Level Minneapolis Center
06:06PM 46.8894 -100.8833 218° Southwest 199 229 3,600 -300 Descending Minneapolis Center
06:07PM 46.8517 -100.8514 150° Southeast 159 183 3,500 -420 Descending Minneapolis Center
06:08PM 46.8256 -100.8172 138° Southeast 128 147 2,800 -660 Descending Minneapolis Center
06:09PM 46.8025 -100.7861 137° Southeast 114 131 2,200 -540 Descending Minneapolis Center
06:10PM 46.7803 -100.7561 137° Southeast 108 124 1,700 -540 Descending Minneapolis Center